Aeroporto :
LOGIN :

Iscrizione | Disclaimer

   EN    FR    IT 

 










Sommario :    VFR   VFR Marginale   IFR   IFR Intensivo   IFR Molto Intensivo
Visibilità : 
Base nubi : 
>= 8 km
>= 3000ft
5 / 8 km
1000 / 3000 ft
1500m / 5 km
500 / 1000 ft
800 / 1500m
200 / 500 ft
< 800m
< 200 ft
Simboli :   Temporali  Nebbia  Neve Forte  Precipitazioni Forti  Vento > 20 kt
SIGMETs :   Varie  Temporali  Ghiacco  Turbolenza  Onda orograficha  Ceneri Vulcaniche






- Altitudine del aeroporto : 256 ft
- Codice IATA : CFR


LFRK - Caen

ULTIMO METAR :
  • 291400Z AUTO 24019KT 9999 FEW030/// SCT058/// BKN076/// ///TCU 07/03 Q0994 TEMPO 24030G50KT 2000 TSRAGS BKN020CB

METARs OBSOLETI :
  • 291330Z AUTO 24024KT 7000 FEW041 SCT048 09/03 Q0994 TEMPO 24030G50KT 2000 TSRAGS BKN020CB
  • 291300Z AUTO 25022KT 7000 NSC 09/02 Q0993 TEMPO 24030G50KT 2000 TSRAGS BKN020CB
  • 291230Z AUTO 24021KT 7000 FEW021/// ///CB 08/03 Q0994 TEMPO 24030G50KT 2000 TSRAGS
  • 291200Z AUTO 24023G53KT 9999 -RA FEW033/// SCT092/// ///TCU 08/03 Q0994 TEMPO 2000 TSRAGS BKN020CB
  • 291130Z AUTO 24024G39KT 8000 3600 -RA SCT031/// BKN039/// BKN047/// ///CB 06/03 Q0993 TEMPO 24030G50KT 2000 TSRAGS
  • 291100Z AUTO 25019G30KT 220V280 9999 FEW023/// BKN030/// BKN039/// ///TCU 09/05 Q0992 TEMPO 24030G50KT 3000 TSRAGS BKN020CB

TAF AMD TAF LFRK
Valido dal 29 a 12 ore il 29 a 21 ore UTC


291210Z 2912/2921 24020G30KT 9999 BKN030
TEMPO 2912/2918 25030G40KT 4000 SHRAGS BKN020CB
PROB40
TEMPO 2912/2916 24030G50KT 2000 TSRAGS
TEMPO 2918/2921 4000 SHRA BKN020TCU
Met : +33 2 31 26 68 11



MetMap, La meteo Aeronautica in un colpo d'occhio ! - Copyright ORBIFLY Dicembre 2007 - Disclaimer

ORBIFLY MET'MAP TEAM :

Programmazione e sviluppo : Alexandra Zaïnal
Concezione : Baudouin d'Aumeries
Aiuto per la programmazione : Marc-Olivier Méhu
Supporto tecnico e logistico : Manuel Goepfert
Aiuto per la traduzione : Arnaldo La Scala

Contatto : metmap@orbifly.com




FONTI E CREDITI :

   NOAA